Terminal Aerodrome Forecast
Issued by NWS Milwaukee/Sullivan, WI

Home | Current Version | Previous Version | Text Only | Print | Product List | Glossary On
Versions: 1 2 3 4 5 6 7 8 9 10 11 12 13 14 15 16 17 18 19 20 21 22 23 24 25 26 27 28
000
FTUS43 KMKX 301120
TAFMKE
TAF
KMKE 301120Z 3012/3118 24004KT P6SM SCT150
     FM301700 25008KT P6SM BKN120
     FM310400 30008KT P6SM OVC030
     FM310600 32013KT P6SM OVC025
     FM310700 33014KT P6SM OVC020
     FM311000 33017G28KT P6SM BKN015
     FM311300 34022G35KT P6SM OVC040=

USA.gov is the U.S. government's official web portal to all federal, state and local government web resources and services.